Time;durP1;ratioP1;P1;durP2;ratioP2;P2;SDS_P1;SDS_P2;PMS_P1;PMS_P2;Temp;Humidity;BMP_temperature;BMP_pressure;BME280_temperature;BME280_humidity;BME280_pressure;Samples;Min_cycle;Max_cycle;Signal;HPM_P1;HPM_P2
2021/12/28 00:00:18;;;;;;;20.07;11.77;;;9.10;99.90;;;;;;4985368;28;20202;-72
2021/12/28 00:02:46;;;;;;;19.47;11.60;;;9.00;99.90;;;;;;4980430;28;20204;-70
2021/12/28 00:05:14;;;;;;;17.93;11.00;;;9.00;99.90;;;;;;4980615;28;20225;-72
2021/12/28 00:07:41;;;;;;;19.80;10.87;;;9.00;99.90;;;;;;4983710;28;20201;-69
2021/12/28 00:10:11;;;;;;;20.30;10.43;;;9.10;99.90;;;;;;4977207;28;20390;-69
2021/12/28 00:12:39;;;;;;;22.57;11.70;;;9.10;99.90;;;;;;4981196;28;20202;-71
2021/12/28 00:17:59;;;;;;;17.00;10.60;;;9.10;99.90;;;;;;4985124;28;20209;-70
2021/12/28 00:20:27;;;;;;;20.07;11.67;;;9.10;99.90;;;;;;4982304;28;20474;-72
2021/12/28 00:22:54;;;;;;;18.93;11.50;;;9.10;99.90;;;;;;4979014;28;20193;-72
2021/12/28 00:25:21;;;;;;;19.80;12.23;;;9.10;99.90;;;;;;4985276;28;20217;-69
2021/12/28 00:27:47;;;;;;;23.37;12.93;;;9.30;99.90;;;;;;4985115;28;20576;-71
2021/12/28 00:30:14;;;;;;;19.80;11.87;;;9.30;99.90;;;;;;4985159;28;20586;-71
2021/12/28 00:32:42;;;;;;;21.93;12.13;;;9.30;99.90;;;;;;4980880;28;20251;-69
2021/12/28 00:35:09;;;;;;;25.67;12.70;;;9.30;99.90;;;;;;4989026;28;20274;-69
2021/12/28 00:37:36;;;;;;;19.17;11.57;;;9.20;99.90;;;;;;4987120;28;20200;-70
2021/12/28 00:40:05;;;;;;;23.63;12.40;;;9.20;99.90;;;;;;4980531;28;20204;-69
2021/12/28 00:42:31;;;;;;;19.77;12.37;;;9.20;99.90;;;;;;4987301;28;20220;-69
2021/12/28 00:44:58;;;;;;;22.20;13.13;;;9.10;99.90;;;;;;4986162;28;20727;-69
2021/12/28 00:47:25;;;;;;;21.17;11.93;;;9.30;99.90;;;;;;4985951;28;20193;-70
2021/12/28 00:49:51;;;;;;;20.97;11.33;;;9.20;99.90;;;;;;4984180;28;20205;-70
2021/12/28 00:52:18;;;;;;;18.77;11.23;;;9.20;99.90;;;;;;4983695;28;20561;-69
2021/12/28 00:54:45;;;;;;;19.23;11.53;;;9.10;99.90;;;;;;4981497;28;20220;-69
2021/12/28 00:57:11;;;;;;;20.73;11.50;;;9.00;99.90;;;;;;4974048;28;20199;-72
2021/12/28 00:59:38;;;;;;;22.07;11.70;;;9.00;99.90;;;;;;4984875;28;20204;-69
2021/12/28 01:02:05;;;;;;;24.10;11.27;;;9.00;99.90;;;;;;4986977;28;20224;-71
2021/12/28 01:04:32;;;;;;;22.77;12.77;;;9.00;99.90;;;;;;4987850;28;20299;-71
2021/12/28 01:06:59;;;;;;;19.43;11.87;;;9.00;99.90;;;;;;4981979;28;20204;-69
2021/12/28 01:09:30;;;;;;;19.27;10.97;;;9.00;99.90;;;;;;4988887;28;20619;-72
2021/12/28 01:11:59;;;;;;;19.23;10.57;;;9.00;99.90;;;;;;4987441;28;20197;-69
2021/12/28 01:14:26;;;;;;;21.00;11.57;;;8.90;99.90;;;;;;4988058;28;20220;-69
2021/12/28 01:16:52;;;;;;;17.87;10.37;;;8.90;99.90;;;;;;4989989;28;20224;-69
2021/12/28 01:19:20;;;;;;;20.97;10.60;;;8.80;99.90;;;;;;4987701;28;20193;-69
2021/12/28 01:21:47;;;;;;;17.47;9.73;;;8.80;99.90;;;;;;4991670;28;20427;-73
2021/12/28 01:24:14;;;;;;;18.37;10.80;;;8.90;99.90;;;;;;4987845;28;20213;-72
2021/12/28 01:26:40;;;;;;;19.10;10.57;;;8.80;99.90;;;;;;4992561;28;20208;-70
2021/12/28 01:29:07;;;;;;;20.00;10.77;;;8.90;99.90;;;;;;4990848;28;20202;-69
2021/12/28 01:31:34;;;;;;;19.07;10.57;;;8.90;99.90;;;;;;4993369;28;20204;-71
2021/12/28 01:34:00;;;;;;;25.40;11.87;;;9.00;99.90;;;;;;4991530;28;20248;-69
2021/12/28 01:36:27;;;;;;;24.47;11.27;;;9.10;99.90;;;;;;4993629;28;20201;-67
2021/12/28 01:38:54;;;;;;;25.67;11.53;;;9.10;99.90;;;;;;4989528;28;20206;-69
2021/12/28 01:41:20;;;;;;;23.80;11.33;;;9.20;99.90;;;;;;4991408;28;20632;-72
2021/12/28 01:43:53;;;;;;;20.53;9.93;;;9.20;99.90;;;;;;4989593;28;20220;-72
2021/12/28 01:46:20;;;;;;;20.63;9.83;;;9.20;99.90;;;;;;4980147;28;20230;-69
2021/12/28 01:48:47;;;;;;;20.10;9.47;;;9.30;99.90;;;;;;4987233;28;20201;-71
2021/12/28 01:51:19;;;;;;;21.27;9.10;;;9.20;99.90;;;;;;4992210;28;20204;-69
2021/12/28 01:53:48;;;;;;;22.87;8.10;;;9.20;99.90;;;;;;4992070;28;20263;-69
2021/12/28 01:56:19;;;;;;;17.30;8.03;;;9.30;99.90;;;;;;4984503;28;20718;-69
2021/12/28 01:58:46;;;;;;;19.60;7.90;;;9.30;99.90;;;;;;4982956;28;20212;-70
2021/12/28 02:01:13;;;;;;;14.60;6.80;;;9.30;99.90;;;;;;4984539;28;20590;-70
2021/12/28 02:03:42;;;;;;;15.40;7.87;;;9.30;99.90;;;;;;4988628;28;20244;-69
2021/12/28 02:06:09;;;;;;;16.80;7.83;;;9.30;99.90;;;;;;4991354;28;20254;-70
2021/12/28 02:08:37;;;;;;;17.87;7.27;;;9.40;99.90;;;;;;4987871;28;20193;-69
2021/12/28 02:11:05;;;;;;;18.67;5.90;;;9.40;99.90;;;;;;4979855;28;20202;-70
2021/12/28 02:13:32;;;;;;;13.90;6.63;;;9.40;99.90;;;;;;4981718;28;20232;-69
2021/12/28 02:15:59;;;;;;;21.67;6.17;;;9.50;99.90;;;;;;4990774;28;20198;-71
2021/12/28 02:18:29;;;;;;;15.97;5.97;;;9.50;99.90;;;;;;4987298;28;20204;-67
2021/12/28 02:20:56;;;;;;;19.40;6.00;;;9.50;99.90;;;;;;4979487;28;20560;-71
2021/12/28 02:23:24;;;;;;;14.17;5.70;;;9.50;99.90;;;;;;4988068;28;20744;-71
2021/12/28 02:25:52;;;;;;;16.60;5.10;;;9.60;99.90;;;;;;4986675;28;20673;-69
2021/12/28 02:28:19;;;;;;;13.37;4.83;;;9.60;99.90;;;;;;4980907;28;20197;-72
2021/12/28 02:30:49;;;;;;;11.50;4.73;;;9.70;99.90;;;;;;4985128;28;20733;-71
2021/12/28 02:33:19;;;;;;;12.37;4.40;;;9.60;99.90;;;;;;4992653;28;20207;-71
2021/12/28 02:35:48;;;;;;;13.00;4.37;;;9.70;99.90;;;;;;4978638;28;20201;-71
2021/12/28 02:38:14;;;;;;;10.63;3.90;;;9.70;99.90;;;;;;4989414;28;20198;-71
2021/12/28 02:40:43;;;;;;;14.07;4.50;;;9.70;99.90;;;;;;4988816;28;20205;-69
2021/12/28 02:43:12;;;;;;;7.83;3.90;;;9.70;99.90;;;;;;4988762;28;20597;-69
2021/12/28 02:45:52;;;;;;;17.77;4.60;;;9.70;99.90;;;;;;4990507;28;20245;-70
2021/12/28 02:48:21;;;;;;;12.33;4.60;;;9.80;99.90;;;;;;4985827;28;20239;-71
2021/12/28 02:50:51;;;;;;;14.53;6.60;;;9.80;99.90;;;;;;4991166;28;20548;-67
2021/12/28 02:53:19;;;;;;;16.50;6.97;;;9.80;99.90;;;;;;4990835;28;20207;-69
2021/12/28 02:55:47;;;;;;;14.70;6.97;;;9.80;99.90;;;;;;4989222;28;20708;-69
2021/12/28 02:58:35;;;;;;;19.70;7.40;;;9.80;99.90;;;;;;4990626;28;20540;-71
2021/12/28 03:01:15;;;;;;;18.97;6.63;;;9.80;99.90;;;;;;4976958;28;20229;-71
2021/12/28 03:03:43;;;;;;;14.40;6.80;;;9.70;99.90;;;;;;4982566;28;20572;-70
2021/12/28 03:06:13;;;;;;;24.47;6.77;;;9.70;99.90;;;;;;4990116;28;20886;-69
2021/12/28 03:08:43;;;;;;;12.17;6.20;;;9.70;99.90;;;;;;4987741;28;21680;-70
2021/12/28 03:11:11;;;;;;;18.47;7.63;;;9.60;99.90;;;;;;4983929;28;20862;-69
2021/12/28 03:13:44;;;;;;;20.00;7.10;;;9.60;99.90;;;;;;4990530;28;20216;-69
2021/12/28 03:16:11;;;;;;;16.20;7.03;;;9.60;99.90;;;;;;4980850;28;20199;-70
2021/12/28 03:18:38;;;;;;;21.57;7.00;;;9.60;99.90;;;;;;4987087;28;20206;-70
2021/12/28 03:21:07;;;;;;;21.07;7.10;;;9.60;99.90;;;;;;4985096;28;20207;-71
2021/12/28 03:23:35;;;;;;;22.77;6.47;;;9.70;99.90;;;;;;4990800;28;20735;-70
2021/12/28 03:26:03;;;;;;;17.10;7.03;;;9.60;99.90;;;;;;4983218;28;20899;-72
2021/12/28 03:28:33;;;;;;;20.03;7.77;;;9.60;99.90;;;;;;4983585;28;20204;-74
2021/12/28 03:31:04;;;;;;;22.27;7.10;;;9.60;99.90;;;;;;4984816;28;20248;-70
2021/12/28 03:33:33;;;;;;;17.60;6.00;;;9.60;99.90;;;;;;4988749;28;20218;-69
2021/12/28 03:36:00;;;;;;;16.70;6.60;;;9.70;99.90;;;;;;4990551;28;20195;-73
2021/12/28 03:38:27;;;;;;;14.70;6.13;;;9.70;99.90;;;;;;4985972;28;20270;-69
2021/12/28 03:40:54;;;;;;;15.77;6.77;;;9.70;99.90;;;;;;4989508;28;20221;-69
2021/12/28 03:43:22;;;;;;;15.13;6.20;;;9.70;99.90;;;;;;4988837;28;20223;-69
2021/12/28 03:45:49;;;;;;;17.33;6.17;;;9.70;99.90;;;;;;4989110;28;20286;-69
2021/12/28 03:48:17;;;;;;;16.13;6.13;;;9.70;99.90;;;;;;4988799;28;20228;-71
2021/12/28 03:50:44;;;;;;;13.83;5.77;;;9.70;99.90;;;;;;4988881;28;20661;-69
2021/12/28 03:53:11;;;;;;;14.57;5.63;;;9.70;99.90;;;;;;4988548;28;20209;-70
2021/12/28 03:55:38;;;;;;;13.27;5.63;;;9.70;99.90;;;;;;4989593;28;20205;-69
2021/12/28 03:58:06;;;;;;;19.07;5.23;;;9.80;99.90;;;;;;4983600;28;20209;-69
2021/12/28 04:00:36;;;;;;;15.07;5.80;;;9.70;99.90;;;;;;4988000;28;20257;-69
2021/12/28 04:03:04;;;;;;;15.43;5.63;;;9.70;99.90;;;;;;4976651;28;20253;-72
2021/12/28 04:05:31;;;;;;;18.30;5.70;;;9.60;99.90;;;;;;4983351;28;20211;-70
2021/12/28 04:07:57;;;;;;;11.87;4.93;;;9.60;99.90;;;;;;4990029;28;20609;-70
2021/12/28 04:11:14;;;;;;;12.43;5.40;;;9.70;99.90;;;;;;4985095;28;20457;-69
2021/12/28 04:13:14;;;;;;;14.57;5.37;;;9.70;99.90;;;;;;4985032;28;20198;-69
2021/12/28 04:15:41;;;;;;;15.80;5.67;;;9.70;99.90;;;;;;4984702;28;20207;-69
2021/12/28 04:18:08;;;;;;;14.13;5.00;;;9.70;99.90;;;;;;4986522;28;20232;-69
2021/12/28 04:20:34;;;;;;;12.07;5.27;;;9.70;99.90;;;;;;4986683;28;20209;-69
2021/12/28 04:23:01;;;;;;;16.80;5.27;;;9.70;99.90;;;;;;4987261;28;20229;-71
2021/12/28 04:25:28;;;;;;;17.50;5.27;;;9.60;99.90;;;;;;4987683;28;20265;-72
2021/12/28 04:27:54;;;;;;;14.50;4.77;;;9.60;99.90;;;;;;4984817;28;20208;-69
2021/12/28 04:30:21;;;;;;;16.23;5.37;;;9.60;99.90;;;;;;4985538;28;20199;-69
2021/12/28 04:32:47;;;;;;;13.23;4.60;;;9.70;99.90;;;;;;4981999;28;20604;-70
2021/12/28 04:35:16;;;;;;;20.67;5.00;;;9.60;99.90;;;;;;4985374;28;20248;-69
2021/12/28 04:37:43;;;;;;;13.53;4.37;;;9.70;99.90;;;;;;4989113;28;20205;-69
2021/12/28 04:40:12;;;;;;;15.03;3.90;;;9.70;99.90;;;;;;4989151;28;20233;-72
2021/12/28 04:42:40;;;;;;;10.30;3.47;;;9.70;99.90;;;;;;4986966;28;20231;-70
2021/12/28 04:45:09;;;;;;;8.47;3.60;;;9.60;99.90;;;;;;4987504;28;20218;-72
2021/12/28 04:47:38;;;;;;;14.23;3.47;;;9.60;99.90;;;;;;4985861;28;20210;-70
2021/12/28 04:50:06;;;;;;;14.27;3.57;;;9.60;99.90;;;;;;4985331;28;20196;-71
2021/12/28 04:52:36;;;;;;;10.90;2.83;;;9.50;99.90;;;;;;4978992;28;20201;-70
2021/12/28 04:55:07;;;;;;;8.93;3.00;;;9.50;99.90;;;;;;4982928;28;20226;-70
2021/12/28 04:57:33;;;;;;;10.30;2.77;;;9.50;99.90;;;;;;4986904;28;20260;-72
2021/12/28 05:00:00;;;;;;;13.10;2.77;;;9.50;99.90;;;;;;4988263;28;20209;-70
2021/12/28 05:02:28;;;;;;;13.03;2.87;;;9.50;99.90;;;;;;4987088;28;20660;-70
2021/12/28 05:04:55;;;;;;;10.90;3.00;;;9.50;99.90;;;;;;4988031;28;20612;-70
2021/12/28 05:07:21;;;;;;;10.53;2.90;;;9.50;99.90;;;;;;4981527;28;20195;-70
2021/12/28 05:09:49;;;;;;;5.93;2.60;;;9.50;99.90;;;;;;4985497;28;20197;-72
2021/12/28 05:12:16;;;;;;;10.80;2.73;;;9.50;99.90;;;;;;4985224;28;20563;-69
2021/12/28 05:14:43;;;;;;;12.50;3.57;;;9.50;99.90;;;;;;4988886;28;20224;-69
2021/12/28 05:17:09;;;;;;;9.97;3.33;;;9.40;99.90;;;;;;4984163;28;20213;-70
2021/12/28 05:19:37;;;;;;;13.87;3.20;;;9.40;99.90;;;;;;4981290;28;20204;-70
2021/12/28 05:22:04;;;;;;;15.10;3.10;;;9.40;99.90;;;;;;4987952;28;20270;-70
2021/12/28 05:24:31;;;;;;;11.33;2.97;;;9.40;99.90;;;;;;4985795;28;20621;-70
2021/12/28 05:26:57;;;;;;;13.53;3.47;;;9.40;99.90;;;;;;4985141;28;20564;-70
2021/12/28 05:29:24;;;;;;;10.33;2.33;;;9.40;99.90;;;;;;4987692;28;20185;-70
2021/12/28 05:31:51;;;;;;;12.83;3.50;;;9.40;99.90;;;;;;4980865;28;20241;-69
2021/12/28 05:34:17;;;;;;;9.27;3.20;;;9.40;99.90;;;;;;4986373;28;20213;-69
2021/12/28 05:36:45;;;;;;;14.87;3.80;;;9.40;99.90;;;;;;4986472;28;20197;-70
2021/12/28 05:39:12;;;;;;;10.97;3.33;;;9.30;99.90;;;;;;4988605;28;20204;-69
2021/12/28 05:41:39;;;;;;;13.30;3.53;;;9.40;99.90;;;;;;4986635;28;20205;-70
2021/12/28 05:44:05;;;;;;;21.57;4.97;;;9.30;99.90;;;;;;4981172;28;20213;-70
2021/12/28 05:46:32;;;;;;;15.30;5.40;;;9.30;99.90;;;;;;4988262;28;20571;-73
2021/12/28 05:48:59;;;;;;;20.37;6.10;;;9.40;99.90;;;;;;4987841;28;20202;-71
2021/12/28 05:51:26;;;;;;;21.30;5.87;;;9.30;99.90;;;;;;4989520;28;20272;-71
2021/12/28 05:53:52;;;;;;;15.73;5.07;;;9.30;99.90;;;;;;4985814;28;20222;-73
2021/12/28 05:56:19;;;;;;;12.43;4.87;;;9.30;99.90;;;;;;4986100;28;20634;-70
2021/12/28 05:58:46;;;;;;;13.53;4.43;;;9.30;99.90;;;;;;4984882;28;20298;-70
2021/12/28 06:01:12;;;;;;;13.33;5.00;;;9.30;99.90;;;;;;4985435;28;20209;-69
2021/12/28 06:03:39;;;;;;;15.97;5.73;;;9.30;99.90;;;;;;4989292;28;20226;-69
2021/12/28 06:06:06;;;;;;;14.07;5.23;;;9.30;99.90;;;;;;4990274;28;20201;-69
2021/12/28 06:08:33;;;;;;;11.10;3.90;;;9.30;99.90;;;;;;4989391;28;20245;-71
2021/12/28 06:11:02;;;;;;;12.83;3.47;;;9.30;99.90;;;;;;4986012;28;20190;-69
2021/12/28 06:13:29;;;;;;;12.47;3.10;;;9.30;99.90;;;;;;4992453;28;20223;-69
2021/12/28 06:15:56;;;;;;;9.73;2.40;;;9.30;99.90;;;;;;4987604;28;20207;-70
2021/12/28 06:18:23;;;;;;;10.23;2.67;;;9.20;99.90;;;;;;4989037;28;20555;-72
2021/12/28 06:20:49;;;;;;;6.97;2.57;;;9.30;99.90;;;;;;4981247;28;20202;-69
2021/12/28 06:23:17;;;;;;;12.60;2.73;;;9.20;99.90;;;;;;4986182;28;20214;-69
2021/12/28 06:25:44;;;;;;;10.97;3.30;;;9.30;99.90;;;;;;4984968;28;20194;-69
2021/12/28 06:28:10;;;;;;;11.93;3.13;;;9.30;99.90;;;;;;4981103;28;20228;-69
2021/12/28 06:30:37;;;;;;;15.87;3.17;;;9.30;99.90;;;;;;4986368;28;20681;-69
2021/12/28 06:33:04;;;;;;;8.63;2.67;;;9.30;99.90;;;;;;4986598;28;20740;-70
2021/12/28 06:35:31;;;;;;;7.43;3.07;;;9.20;99.90;;;;;;4988445;28;20220;-67
2021/12/28 06:37:58;;;;;;;10.60;2.80;;;9.20;99.90;;;;;;4986234;28;20202;-73
2021/12/28 06:40:25;;;;;;;12.73;3.10;;;9.20;99.90;;;;;;4990597;28;20205;-71
2021/12/28 06:42:52;;;;;;;8.00;2.57;;;9.30;99.90;;;;;;4986874;28;20704;-72
2021/12/28 06:45:19;;;;;;;8.77;2.60;;;9.30;99.90;;;;;;4983230;28;20728;-73
2021/12/28 06:47:46;;;;;;;9.83;2.60;;;9.30;99.90;;;;;;4990069;28;20219;-72
2021/12/28 06:50:13;;;;;;;12.27;2.77;;;9.40;99.90;;;;;;4983264;28;20221;-70
2021/12/28 06:52:40;;;;;;;9.87;4.10;;;9.50;99.90;;;;;;4986382;28;20226;-70
2021/12/28 06:55:08;;;;;;;9.60;3.13;;;9.50;99.90;;;;;;4985908;28;20226;-71
2021/12/28 06:57:35;;;;;;;11.23;2.93;;;9.60;99.90;;;;;;4983933;28;20262;-73
2021/12/28 07:00:05;;;;;;;9.47;3.10;;;9.70;99.90;;;;;;4988284;28;20204;-73
2021/12/28 07:02:31;;;;;;;11.37;3.13;;;9.80;99.90;;;;;;4978817;28;20248;-72
2021/12/28 07:04:58;;;;;;;9.20;2.97;;;9.80;99.90;;;;;;4978881;28;20728;-71
2021/12/28 07:07:25;;;;;;;10.20;2.93;;;9.90;99.90;;;;;;4986428;28;20337;-71
2021/12/28 07:09:51;;;;;;;9.10;3.63;;;9.90;99.90;;;;;;4986884;28;20197;-71
2021/12/28 07:12:18;;;;;;;12.13;3.80;;;9.80;99.90;;;;;;4985176;28;20195;-71
2021/12/28 07:14:45;;;;;;;13.63;4.00;;;9.70;99.90;;;;;;4985550;28;20716;-72
2021/12/28 07:17:11;;;;;;;8.83;3.40;;;9.70;99.90;;;;;;4983770;28;20194;-70
2021/12/28 07:19:38;;;;;;;10.10;4.13;;;9.70;99.90;;;;;;4984003;28;20194;-74
2021/12/28 07:22:05;;;;;;;11.83;4.50;;;9.60;99.90;;;;;;4983310;28;20292;-72
2021/12/28 07:24:31;;;;;;;13.93;4.27;;;9.60;99.90;;;;;;4985823;28;20287;-70
2021/12/28 07:26:58;;;;;;;9.57;4.13;;;9.50;99.90;;;;;;4985085;28;20210;-70
2021/12/28 07:29:25;;;;;;;12.23;3.33;;;9.50;99.90;;;;;;4984964;28;20194;-72
2021/12/28 07:31:52;;;;;;;13.07;3.30;;;9.40;99.90;;;;;;4985971;28;20229;-70
2021/12/28 07:34:18;;;;;;;11.17;3.67;;;9.50;99.90;;;;;;4985880;28;20219;-71
2021/12/28 07:36:45;;;;;;;17.47;5.30;;;9.40;99.90;;;;;;4981034;28;20612;-70
2021/12/28 07:39:12;;;;;;;17.10;5.30;;;9.50;99.90;;;;;;4982126;28;20201;-72
2021/12/28 07:41:39;;;;;;;11.03;4.57;;;9.40;99.90;;;;;;4985455;28;20205;-70
2021/12/28 07:44:06;;;;;;;7.87;4.03;;;9.40;99.90;;;;;;4984831;28;20606;-71
2021/12/28 07:46:32;;;;;;;11.40;3.53;;;9.40;99.90;;;;;;4980772;28;20205;-71
2021/12/28 07:48:59;;;;;;;10.77;3.90;;;9.30;99.90;;;;;;4983222;28;20222;-68
2021/12/28 07:51:26;;;;;;;13.93;3.90;;;9.30;99.90;;;;;;4984470;28;20197;-73
2021/12/28 07:53:52;;;;;;;9.53;3.53;;;9.30;99.90;;;;;;4985339;28;20226;-71
2021/12/28 07:56:19;;;;;;;8.73;3.23;;;9.30;99.90;;;;;;4980964;28;20213;-72
2021/12/28 07:58:46;;;;;;;8.70;2.97;;;9.30;99.90;;;;;;4984771;28;20212;-70
2021/12/28 08:01:13;;;;;;;9.40;3.00;;;9.40;99.90;;;;;;4981130;28;20211;-70
2021/12/28 08:03:40;;;;;;;6.63;3.20;;;9.40;99.90;;;;;;4980474;28;20838;-73
2021/12/28 08:06:06;;;;;;;7.40;3.73;;;9.40;99.90;;;;;;4984384;28;20231;-73
2021/12/28 08:08:33;;;;;;;11.23;4.13;;;9.50;99.90;;;;;;4981922;28;20209;-72
2021/12/28 08:11:00;;;;;;;10.70;3.97;;;9.50;99.90;;;;;;4984938;28;20199;-71
2021/12/28 08:13:27;;;;;;;12.53;3.60;;;9.50;99.90;;;;;;4982688;28;20204;-72
2021/12/28 08:15:55;;;;;;;12.90;4.17;;;9.50;99.90;;;;;;4982833;28;20255;-71
2021/12/28 08:18:22;;;;;;;10.27;3.97;;;9.60;99.90;;;;;;4982530;28;20204;-71
2021/12/28 08:20:50;;;;;;;11.37;4.00;;;9.50;99.90;;;;;;4984095;28;20209;-71
2021/12/28 08:23:16;;;;;;;11.37;4.00;;;9.50;99.90;;;;;;4980950;28;20245;-69
2021/12/28 08:25:43;;;;;;;8.53;4.07;;;9.50;99.90;;;;;;4982177;28;20209;-73
2021/12/28 08:28:11;;;;;;;12.17;4.60;;;9.60;99.90;;;;;;4983968;28;20637;-69
2021/12/28 08:30:38;;;;;;;11.73;4.30;;;9.50;99.90;;;;;;4982860;28;20209;-72
2021/12/28 08:33:07;;;;;;;6.23;3.23;;;9.50;99.90;;;;;;4983802;28;20195;-67
2021/12/28 08:35:39;;;;;;;8.27;3.87;;;9.50;99.90;;;;;;4985856;28;20225;-69
2021/12/28 08:38:07;;;;;;;7.37;3.40;;;9.60;99.90;;;;;;4985382;28;20321;-69
2021/12/28 08:40:35;;;;;;;8.40;3.60;;;9.60;99.90;;;;;;4983791;28;20210;-73
2021/12/28 08:43:02;;;;;;;5.80;3.00;;;9.70;99.90;;;;;;4980117;28;20226;-71
2021/12/28 08:45:29;;;;;;;10.10;3.20;;;9.70;99.90;;;;;;4981764;28;20221;-69
2021/12/28 08:47:56;;;;;;;6.63;2.90;;;9.80;99.90;;;;;;4978311;28;20207;-68
2021/12/28 08:50:23;;;;;;;7.50;2.97;;;9.90;99.90;;;;;;4984205;28;20193;-69
2021/12/28 08:52:51;;;;;;;9.33;3.10;;;9.90;99.90;;;;;;4983944;28;20206;-69
2021/12/28 08:55:23;;;;;;;7.43;3.63;;;10.00;99.90;;;;;;4985203;28;20245;-69
2021/12/28 08:57:50;;;;;;;8.30;3.50;;;10.00;99.90;;;;;;4984581;28;20212;-69
2021/12/28 09:00:21;;;;;;;8.07;3.40;;;10.10;99.90;;;;;;4984994;28;20297;-69
2021/12/28 09:02:48;;;;;;;7.57;3.33;;;10.20;99.90;;;;;;4985163;28;20214;-71
2021/12/28 09:05:14;;;;;;;7.13;2.93;;;10.30;99.90;;;;;;4985042;28;20306;-71
2021/12/28 09:07:41;;;;;;;4.17;2.80;;;10.40;99.90;;;;;;4985393;28;20215;-69
2021/12/28 09:10:08;;;;;;;5.10;2.80;;;10.50;99.90;;;;;;4983110;28;20266;-71
2021/12/28 09:12:35;;;;;;;4.17;2.47;;;10.60;99.90;;;;;;4979701;28;20216;-71
2021/12/28 09:15:04;;;;;;;4.40;2.20;;;10.70;99.90;;;;;;4976413;28;20708;-70
2021/12/28 09:17:33;;;;;;;4.40;2.07;;;10.70;99.90;;;;;;4982904;28;20203;-71
2021/12/28 09:20:00;;;;;;;4.30;2.30;;;10.60;99.90;;;;;;4983744;28;20268;-69
2021/12/28 09:22:27;;;;;;;4.33;2.27;;;10.50;99.90;;;;;;4982201;28;20206;-72
2021/12/28 09:24:53;;;;;;;3.90;2.27;;;10.40;99.90;;;;;;4982630;28;20226;-73
2021/12/28 09:27:20;;;;;;;5.70;2.27;;;10.40;99.90;;;;;;4981004;28;20235;-71
2021/12/28 09:29:47;;;;;;;3.77;2.00;;;10.50;99.90;;;;;;4982048;28;20249;-67
2021/12/28 09:32:17;;;;;;;4.37;2.23;;;10.60;99.90;;;;;;4982880;28;20204;-73
2021/12/28 09:34:46;;;;;;;3.43;2.13;;;10.80;99.90;;;;;;4983629;28;20230;-71
2021/12/28 09:37:12;;;;;;;2.70;2.17;;;10.90;99.90;;;;;;4982332;28;20201;-71
2021/12/28 09:39:40;;;;;;;2.83;2.10;;;11.00;99.90;;;;;;4985744;28;20204;-73
2021/12/28 09:42:07;;;;;;;2.50;1.80;;;11.10;99.90;;;;;;4986047;28;20220;-74
2021/12/28 09:44:34;;;;;;;2.77;1.90;;;11.00;99.90;;;;;;4986581;28;20290;-71
2021/12/28 09:47:03;;;;;;;3.93;2.00;;;11.10;99.90;;;;;;4986700;28;20210;-70
2021/12/28 09:49:31;;;;;;;2.97;1.67;;;11.10;99.90;;;;;;4987195;28;20354;-77
2021/12/28 09:52:00;;;;;;;3.07;1.80;;;11.20;99.90;;;;;;4985026;28;20764;-77
2021/12/28 09:54:28;;;;;;;2.37;1.80;;;11.20;99.90;;;;;;4987126;28;20259;-73
2021/12/28 09:56:56;;;;;;;3.03;1.90;;;11.30;99.90;;;;;;4987933;28;20225;-73
2021/12/28 09:59:27;;;;;;;3.53;1.67;;;11.30;99.90;;;;;;4986073;28;20227;-75
2021/12/28 10:01:54;;;;;;;1.83;1.60;;;11.30;99.90;;;;;;4986782;28;20563;-69
2021/12/28 10:04:21;;;;;;;3.67;2.03;;;11.40;99.90;;;;;;4986525;28;20379;-70
2021/12/28 10:06:48;;;;;;;2.43;1.90;;;11.50;99.90;;;;;;4982721;28;20208;-74
2021/12/28 10:09:17;;;;;;;3.23;1.63;;;11.50;99.90;;;;;;4985117;28;20208;-72
2021/12/28 10:11:53;;;;;;;2.97;1.80;;;11.60;99.90;;;;;;4984890;28;20243;-70
2021/12/28 10:14:28;;;;;;;2.27;1.70;;;11.50;99.90;;;;;;4984128;28;20220;-70
2021/12/28 10:16:56;;;;;;;2.40;1.83;;;11.50;99.90;;;;;;4987109;28;20201;-72
2021/12/28 10:19:44;;;;;;;4.37;2.10;;;11.50;99.90;;;;;;4987611;28;20208;-73
2021/12/28 10:22:31;;;;;;;3.53;2.17;;;11.70;99.90;;;;;;4986449;28;20201;-70
2021/12/28 10:25:00;;;;;;;3.77;1.97;;;11.70;99.90;;;;;;4987401;28;20233;-69
2021/12/28 10:27:30;;;;;;;4.80;2.27;;;11.80;99.90;;;;;;4985722;28;20205;-73
2021/12/28 10:30:26;;;;;;;3.80;2.07;;;11.70;99.90;;;;;;4984744;28;20204;-71
2021/12/28 10:32:56;;;;;;;3.47;2.20;;;11.70;99.90;;;;;;4985904;28;20201;-72
2021/12/28 10:35:27;;;;;;;3.43;2.30;;;11.80;99.90;;;;;;4987261;28;20224;-70
2021/12/28 10:38:00;;;;;;;5.50;2.43;;;11.80;99.90;;;;;;4983841;28;20198;-72
2021/12/28 10:40:52;;;;;;;8.77;2.87;;;12.00;99.90;;;;;;4985447;28;20704;-75
2021/12/28 10:43:31;;;;;;;5.93;2.87;;;11.90;99.90;;;;;;4985505;28;20266;-71
2021/12/28 10:46:05;;;;;;;5.37;3.50;;;11.90;99.90;;;;;;5002075;28;20198;-78
2021/12/28 10:48:39;;;;;;;8.07;2.97;;;12.00;99.90;;;;;;4985527;28;20199;-78
2021/12/28 10:51:12;;;;;;;3.57;2.53;;;12.00;99.90;;;;;;4986416;28;20212;-77
2021/12/28 10:56:29;;;;;;;8.20;3.00;;;11.70;99.90;;;;;;4986889;28;20209;-74
2021/12/28 10:58:56;;;;;;;6.73;3.10;;;11.50;99.90;;;;;;4983969;28;20209;-75
2021/12/28 11:01:29;;;;;;;4.80;2.67;;;11.40;99.90;;;;;;4984384;28;20204;-75
2021/12/28 11:03:58;;;;;;;4.63;2.80;;;11.40;99.90;;;;;;4985451;28;20233;-79
2021/12/28 11:06:28;;;;;;;4.90;2.60;;;11.60;99.90;;;;;;4985182;28;20254;-78
2021/12/28 11:08:59;;;;;;;6.07;2.93;;;11.90;99.90;;;;;;4985458;28;20198;-79
2021/12/28 11:11:27;;;;;;;6.07;3.00;;;12.00;99.90;;;;;;4985704;28;20251;-78
2021/12/28 11:14:01;;;;;;;5.80;2.70;;;12.20;99.90;;;;;;4977486;28;20302;-78
2021/12/28 11:16:29;;;;;;;6.10;2.90;;;12.30;99.90;;;;;;4984564;28;20255;-79
2021/12/28 11:18:58;;;;;;;5.07;2.80;;;12.30;99.90;;;;;;4984223;28;20203;-83
2021/12/28 11:21:28;;;;;;;5.60;3.00;;;12.30;99.90;;;;;;4982410;28;20340;-73
2021/12/28 11:24:01;;;;;;;6.77;3.00;;;12.40;99.90;;;;;;4985174;28;20585;-79
2021/12/28 11:26:32;;;;;;;5.07;2.90;;;12.50;99.90;;;;;;4984940;28;20220;-76
2021/12/28 11:29:15;;;;;;;4.90;3.00;;;12.40;99.90;;;;;;4983831;28;20196;-74
2021/12/28 11:31:51;;;;;;;6.07;2.80;;;12.50;99.90;;;;;;4986081;28;20219;-78
2021/12/28 11:34:31;;;;;;;7.50;3.00;;;12.50;99.90;;;;;;4986142;28;20257;-79
2021/12/28 11:37:15;;;;;;;7.33;3.07;;;12.40;99.90;;;;;;4982623;28;20228;-80
2021/12/28 11:39:48;;;;;;;5.53;2.97;;;12.60;99.90;;;;;;4984528;28;20586;-77
2021/12/28 11:42:16;;;;;;;6.00;3.20;;;12.70;99.90;;;;;;4985488;28;20676;-78
2021/12/28 11:44:43;;;;;;;5.23;2.90;;;12.50;99.90;;;;;;4980372;28;20254;-78
2021/12/28 11:47:12;;;;;;;8.47;3.07;;;12.40;99.90;;;;;;4982738;28;20199;-80
2021/12/28 11:49:41;;;;;;;5.63;3.20;;;12.50;99.90;;;;;;4983888;28;20223;-77
2021/12/28 11:52:14;;;;;;;5.30;3.23;;;12.50;99.90;;;;;;4984311;28;20202;-76
2021/12/28 11:54:47;;;;;;;3.87;3.07;;;12.50;99.90;;;;;;4984429;28;20326;-74
2021/12/28 11:57:18;;;;;;;4.13;3.00;;;12.50;99.90;;;;;;4985603;28;20203;-75
2021/12/28 12:00:02;;;;;;;4.47;3.10;;;12.30;99.90;;;;;;4984762;28;20470;-74
2021/12/28 12:02:35;;;;;;;6.53;3.20;;;12.10;99.90;;;;;;4982741;28;20221;-74
2021/12/28 12:05:17;;;;;;;4.63;3.10;;;11.90;99.90;;;;;;4983803;28;20260;-72
2021/12/28 12:07:44;;;;;;;5.50;3.20;;;11.80;99.90;;;;;;4980484;28;20203;-79
2021/12/28 12:10:27;;;;;;;5.60;3.80;;;11.90;99.90;;;;;;4977346;28;20265;-80
2021/12/28 12:12:56;;;;;;;7.90;3.50;;;12.10;99.90;;;;;;4984888;28;20753;-78
2021/12/28 12:15:25;;;;;;;6.40;3.43;;;12.00;99.90;;;;;;4984691;28;20230;-82
2021/12/28 12:17:58;;;;;;;5.03;3.77;;;12.00;99.90;;;;;;4983217;28;20212;-76
2021/12/28 12:20:30;;;;;;;6.63;3.77;;;12.00;99.90;;;;;;4976933;28;20658;-78
2021/12/28 12:23:21;;;;;;;8.53;4.33;;;12.00;99.90;;;;;;4983252;28;20207;-78
2021/12/28 12:25:51;;;;;;;7.87;4.20;;;11.70;99.90;;;;;;4980035;28;20224;-74
2021/12/28 12:28:39;;;;;;;7.33;4.23;;;11.60;99.90;;;;;;4982411;28;20712;-74
2021/12/28 12:31:10;;;;;;;6.20;3.90;;;11.70;99.90;;;;;;4984622;28;20268;-78
2021/12/28 12:33:44;;;;;;;8.60;3.80;;;11.80;99.90;;;;;;4984626;28;20790;-78
2021/12/28 12:36:23;;;;;;;4.90;3.70;;;11.70;99.90;;;;;;4983327;28;20192;-81
2021/12/28 12:38:52;;;;;;;5.93;3.63;;;11.60;99.90;;;;;;4983544;28;20193;-72
2021/12/28 12:41:22;;;;;;;8.50;4.53;;;11.70;99.90;;;;;;4984176;28;20198;-73
2021/12/28 12:43:57;;;;;;;6.97;4.00;;;11.70;99.90;;;;;;4982674;28;20299;-73
2021/12/28 12:46:29;;;;;;;5.70;4.13;;;11.70;99.90;;;;;;4981518;28;20204;-72
2021/12/28 12:49:00;;;;;;;6.63;4.77;;;11.70;99.90;;;;;;4979877;28;20197;-73
2021/12/28 12:51:30;;;;;;;7.07;4.00;;;11.70;99.90;;;;;;4978308;28;20208;-73
2021/12/28 12:54:13;;;;;;;7.10;4.80;;;11.50;99.90;;;;;;4982343;28;20282;-70
2021/12/28 12:56:43;;;;;;;5.83;4.10;;;11.40;99.90;;;;;;4983139;28;20204;-70
2021/12/28 12:59:30;;;;;;;6.63;4.40;;;11.50;99.90;;;;;;4984027;28;20204;-74